createdAt,value
2022-10-19T15:57:52.364Z,62.8
2022-10-19T16:03:18.608Z,62.8
2022-10-19T16:08:45.106Z,62.8
2022-10-19T16:14:06.339Z,62.7
2022-10-19T16:19:37.808Z,62.6
2022-10-19T16:24:47.948Z,62.6
2022-10-19T16:29:58.401Z,62.5
2022-10-19T16:35:21.313Z,62.5
2022-10-19T16:40:48.106Z,62.4
2022-10-19T16:46:12.721Z,62.4
2022-10-19T16:51:19.926Z,62.4
2022-10-19T16:56:45.972Z,62.3
2022-10-19T17:01:57.977Z,62.2
2022-10-19T17:07:20.515Z,62.2
2022-10-19T17:13:08.816Z,62.3
2022-10-19T17:18:47.930Z,62.1
2022-10-19T17:23:54.372Z,62
2022-10-19T17:29:01.793Z,62
2022-10-19T17:34:23.287Z,61.9
2022-10-19T17:39:46.541Z,61.9
2022-10-19T17:44:52.820Z,61.8
2022-10-19T17:50:14.766Z,61.9
2022-10-19T17:56:01.634Z,61.8
2022-10-19T18:01:26.476Z,61.7
2022-10-19T18:06:49.660Z,61.6
2022-10-19T18:12:12.543Z,61.6
2022-10-19T18:17:18.959Z,61.5
2022-10-19T18:33:20.872Z,61.4
2022-10-19T18:38:27.282Z,61.3
2022-10-19T18:43:49.927Z,61.3
2022-10-19T18:49:00.568Z,61.3
2022-10-19T18:54:28.208Z,61.2
2022-10-19T18:59:50.762Z,61.1
2022-10-19T19:05:38.073Z,61.1
2022-10-19T19:10:28.985Z,61
2022-10-19T19:15:53.890Z,60.9
2022-10-19T19:21:16.138Z,60.9
2022-10-19T19:26:41.261Z,60.9
2022-10-19T19:32:07.865Z,60.8
2022-10-19T19:37:28.774Z,60.8
2022-10-19T19:42:51.030Z,60.8
2022-10-19T19:48:13.820Z,60.7
2022-10-19T19:53:35.518Z,60.6
2022-10-19T19:59:01.745Z,60.6
2022-10-19T20:04:24.797Z,60.6
